North Hadley, Massachusetts
Current Conditions -  °F | °C
As of 1:58 PM on Saturday 25 Oct 2014 (Local Time) from KCEF Reporting Station
Scattered Clouds Scattered Clouds  
Wind Chill: 65°   Ceiling: Unl
Heat Index: 65°   Visibility: 10mi
Dew Point: 44°   Wind: 12mph
Humidity: 46%   Direction: 280°W
Pressure: 29.65"   Gusts: NA
Location:  42.3561°N, 72.5677°W
Report Text: KCEF 251758Z AUTO 28010KT 10SM SCT048 18/07 A2965 RMK AO2 SLP047 T01840065 10188 20031 57037
Loading
Personal Weather Stations






























Interactive Weather Map
Tropical Storm Tracking
New forecast layout! Learn more

10-Day Weather Forecast

Advertisements
Track Severe Weather on mobile